MARCH 31,2015

 

METAR SMJP 312300Z 04005KT 9999 BKN035 25/243 Q1013 NOSIG=

METAR SMZO 312300Z 06006KT 9999 FEW015 SCT030 27/23 Q1013 NOSIG=

METAR SMNI 312300Z 06012KT 9999 FEW018 26/22 Q1013=